createdAt,value
2022-11-12T00:03:48.961Z,5.07
2022-11-12T00:06:15.392Z,4.03
2022-11-12T00:08:41.755Z,5.00
2022-11-12T00:19:39.060Z,4.70
2022-11-12T00:22:05.429Z,5.10
2022-11-12T00:24:31.808Z,4.43
2022-11-12T00:29:47.885Z,5.00
2022-11-12T00:32:14.392Z,7.53
2022-11-12T00:34:40.782Z,7.20
2022-11-12T00:37:07.167Z,6.73
2022-11-12T00:39:33.609Z,4.90
2022-11-12T00:42:00.232Z,5.70
2022-11-12T00:44:27.637Z,6.10
2022-11-12T00:46:54.108Z,6.83
2022-11-12T00:49:20.667Z,6.13
2022-11-12T00:51:47.155Z,6.63
2022-11-12T00:54:13.625Z,6.63
2022-11-12T00:56:39.956Z,6.17
2022-11-12T00:59:06.549Z,5.87
2022-11-12T01:01:33.118Z,6.63
2022-11-12T01:04:00.514Z,5.70
2022-11-12T01:06:27.061Z,5.10
2022-11-12T01:08:55.449Z,5.83
2022-11-12T01:11:25.417Z,6.93
2022-11-12T01:13:57.952Z,8.07
2022-11-12T01:16:26.885Z,6.97
2022-11-12T01:18:55.905Z,13.00
2022-11-12T01:21:24.734Z,9.43
2022-11-12T01:23:51.488Z,6.37
2022-11-12T01:26:20.328Z,5.53
2022-11-12T01:28:46.863Z,6.47
2022-11-12T01:31:41.814Z,5.53
2022-11-12T01:34:09.920Z,5.23
2022-11-12T01:36:38.816Z,6.93
2022-11-12T01:39:07.315Z,6.10
2022-11-12T01:41:36.208Z,8.17
2022-11-12T01:44:17.772Z,6.80
2022-11-12T01:47:10.565Z,6.73
2022-11-12T01:49:52.333Z,7.43
2022-11-12T01:52:27.758Z,6.00
2022-11-12T01:54:58.732Z,5.30
2022-11-12T01:57:34.394Z,7.10
2022-11-12T02:00:06.798Z,5.93
2022-11-12T02:02:34.543Z,7.67
2022-11-12T02:05:02.791Z,7.53
2022-11-12T02:07:31.012Z,7.53
2022-11-12T02:09:59.833Z,7.70
2022-11-12T02:12:44.898Z,6.63
2022-11-12T02:15:11.345Z,7.47
2022-11-12T02:17:37.709Z,5.00
2022-11-12T02:20:04.742Z,6.73
2022-11-12T02:22:31.072Z,4.77
2022-11-12T02:24:57.388Z,4.20
2022-11-12T02:27:24.210Z,6.47
2022-11-12T02:29:50.542Z,4.20
2022-11-12T02:32:17.044Z,4.77
2022-11-12T02:34:43.390Z,3.50
2022-11-12T02:37:09.740Z,5.17
2022-11-12T02:39:36.240Z,4.27
2022-11-12T02:42:02.892Z,3.43
2022-11-12T02:44:30.148Z,4.33
2022-11-12T02:46:56.644Z,3.73
2022-11-12T02:49:23.101Z,4.57
2022-11-12T02:51:49.445Z,4.63
2022-11-12T02:54:15.937Z,3.67
2022-11-12T02:56:42.261Z,6.40
2022-11-12T02:59:08.586Z,4.23
2022-11-12T03:01:35.031Z,3.50
2022-11-12T03:04:01.368Z,4.03
2022-11-12T03:06:27.773Z,3.83
2022-11-12T03:08:54.245Z,4.10
2022-11-12T03:11:20.599Z,4.50
2022-11-12T03:13:47.032Z,4.83
2022-11-12T03:16:13.647Z,4.50
2022-11-12T03:18:40.092Z,4.40
2022-11-12T03:21:06.651Z,4.30
2022-11-12T03:23:33.134Z,6.77
2022-11-12T03:26:03.059Z,5.07
2022-11-12T03:28:29.700Z,4.73
2022-11-12T03:31:00.461Z,4.53
2022-11-12T03:33:26.913Z,4.97
2022-11-12T03:35:53.431Z,4.37
2022-11-12T03:38:19.904Z,3.73
2022-11-12T03:40:46.412Z,3.87
2022-11-12T03:43:12.774Z,4.87
2022-11-12T03:45:39.409Z,3.83
2022-11-12T03:48:06.074Z,6.20
2022-11-12T03:50:32.552Z,3.87
2022-11-12T03:52:59.988Z,4.70
2022-11-12T03:55:28.643Z,3.77
2022-11-12T03:57:56.218Z,4.23
2022-11-12T04:00:24.356Z,3.20
2022-11-12T04:02:51.097Z,3.90
2022-11-12T04:05:36.104Z,3.70
2022-11-12T04:08:23.204Z,4.23
2022-11-12T04:10:50.134Z,3.10
2022-11-12T04:13:28.669Z,3.50
2022-11-12T04:16:13.567Z,4.53
2022-11-12T04:18:59.035Z,3.77
2022-11-12T04:21:56.439Z,4.87
2022-11-12T04:25:07.452Z,3.60
2022-11-12T04:27:34.881Z,3.73
2022-11-12T04:30:17.317Z,3.90
2022-11-12T04:32:54.543Z,5.03
2022-11-12T04:35:23.261Z,4.17
2022-11-12T04:37:49.952Z,4.53
2022-11-12T04:40:41.274Z,4.90
2022-11-12T04:43:29.606Z,3.50
2022-11-12T04:45:56.565Z,4.63
2022-11-12T04:48:24.373Z,3.37
2022-11-12T04:50:56.783Z,4.40
2022-11-12T04:53:23.582Z,3.83
2022-11-12T04:55:51.926Z,3.73
2022-11-12T04:58:18.417Z,4.47
2022-11-12T05:00:44.797Z,3.90
2022-11-12T05:03:11.474Z,3.43
2022-11-12T05:05:37.843Z,5.30
2022-11-12T05:08:04.311Z,5.47
2022-11-12T05:10:31.292Z,3.90
2022-11-12T05:12:58.243Z,5.20
2022-11-12T05:15:24.897Z,5.93
2022-11-12T05:17:51.705Z,3.40
2022-11-12T05:20:18.696Z,3.40
2022-11-12T05:22:59.047Z,3.60
2022-11-12T05:25:31.588Z,3.73
2022-11-12T05:27:57.978Z,4.93
2022-11-12T05:30:24.374Z,3.23
2022-11-12T05:32:50.829Z,4.43
2022-11-12T05:35:17.188Z,5.83
2022-11-12T05:37:43.863Z,3.37
2022-11-12T05:40:10.628Z,4.43
2022-11-12T05:42:36.959Z,3.30
2022-11-12T05:45:03.614Z,3.87
2022-11-12T05:47:30.117Z,4.77
2022-11-12T05:49:56.522Z,3.60
2022-11-12T05:52:22.880Z,4.57
2022-11-12T05:54:49.318Z,3.17
2022-11-12T05:57:15.937Z,3.63
2022-11-12T05:59:42.264Z,5.90
2022-11-12T06:02:08.754Z,4.03
2022-11-12T06:04:35.288Z,6.03
2022-11-12T06:07:04.097Z,6.40
2022-11-12T06:09:30.640Z,4.77
2022-11-12T06:11:57.129Z,6.20
2022-11-12T06:14:23.468Z,4.37
2022-11-12T06:16:49.800Z,6.67
2022-11-12T06:19:16.252Z,4.97
2022-11-12T06:21:42.563Z,4.63
2022-11-12T06:24:09.611Z,5.03
2022-11-12T06:26:37.996Z,4.90
2022-11-12T06:29:04.557Z,5.27
2022-11-12T06:31:30.939Z,7.70
2022-11-12T06:33:57.277Z,4.37
2022-11-12T06:36:24.644Z,4.00
2022-11-12T06:38:51.064Z,4.47
2022-11-12T06:41:17.606Z,8.30
2022-11-12T06:43:44.242Z,5.77
2022-11-12T06:46:16.047Z,4.77
2022-11-12T06:48:42.822Z,4.50
2022-11-12T06:51:20.325Z,4.87
2022-11-12T06:53:47.196Z,4.17
2022-11-12T06:56:14.433Z,4.93
2022-11-12T06:58:41.493Z,5.90
2022-11-12T07:01:16.700Z,5.10
2022-11-12T07:03:44.659Z,5.30
2022-11-12T07:06:14.186Z,4.43
2022-11-12T07:08:41.333Z,4.07
2022-11-12T07:11:08.181Z,6.93
2022-11-12T07:13:36.352Z,4.80
2022-11-12T07:16:05.313Z,4.00
2022-11-12T07:18:33.273Z,5.50
2022-11-12T07:21:05.846Z,6.37
2022-11-12T07:23:34.098Z,7.63
2022-11-12T07:26:03.385Z,7.63
2022-11-12T07:28:30.221Z,3.97
2022-11-12T07:31:06.491Z,3.60
2022-11-12T07:33:33.601Z,6.40
2022-11-12T07:36:11.412Z,4.83
2022-11-12T07:38:39.710Z,4.83
2022-11-12T07:41:14.699Z,4.27
2022-11-12T07:43:42.817Z,4.30
2022-11-12T07:46:15.571Z,4.37
2022-11-12T07:48:42.367Z,5.37
2022-11-12T07:51:26.431Z,7.10
2022-11-12T07:53:58.971Z,7.87
2022-11-12T07:56:27.063Z,8.00
2022-11-12T07:58:53.495Z,6.30
2022-11-12T08:01:23.043Z,6.23
2022-11-12T08:03:49.502Z,5.27
2022-11-12T08:06:15.854Z,4.53
2022-11-12T08:08:42.284Z,6.63
2022-11-12T08:11:09.249Z,7.17
2022-11-12T08:13:35.768Z,5.40
2022-11-12T08:16:02.199Z,5.13
2022-11-12T08:18:28.910Z,9.93
2022-11-12T08:21:03.124Z,6.93
2022-11-12T08:23:30.129Z,6.40
2022-11-12T08:26:01.057Z,5.50
2022-11-12T08:28:32.241Z,6.27
2022-11-12T08:31:03.405Z,6.47
2022-11-12T08:33:30.315Z,5.07
2022-11-12T08:35:56.816Z,8.27
2022-11-12T08:38:23.259Z,13.73
2022-11-12T08:40:49.676Z,13.67
2022-11-12T08:43:16.254Z,10.03
2022-11-12T08:45:42.608Z,8.70
2022-11-12T08:48:11.503Z,6.40
2022-11-12T08:50:37.963Z,8.13
2022-11-12T08:53:07.720Z,5.47
2022-11-12T08:55:34.896Z,5.43
2022-11-12T08:58:02.362Z,5.80
2022-11-12T09:00:31.092Z,5.43
2022-11-12T09:03:00.706Z,5.50
2022-11-12T09:05:27.413Z,4.53
2022-11-12T09:07:58.280Z,5.77
2022-11-12T09:10:25.315Z,4.37
2022-11-12T09:12:52.513Z,3.50
2022-11-12T09:15:37.071Z,7.83
2022-11-12T09:18:07.055Z,3.10
2022-11-12T09:20:33.686Z,3.73
2022-11-12T09:23:09.016Z,4.57
2022-11-12T09:25:36.530Z,3.37
2022-11-12T09:28:14.490Z,7.37
2022-11-12T09:30:46.524Z,4.63
2022-11-12T09:33:19.204Z,3.87
2022-11-12T09:35:46.564Z,3.23
2022-11-12T09:38:14.804Z,4.77
2022-11-12T09:40:55.614Z,3.37
2022-11-12T09:43:32.082Z,3.77
2022-11-12T09:49:12.386Z,5.40
2022-11-12T09:51:45.067Z,4.47
2022-11-12T09:54:20.515Z,3.93
2022-11-12T09:56:50.952Z,4.67
2022-11-12T09:59:18.012Z,4.03
2022-11-12T10:02:23.335Z,5.60
2022-11-12T10:05:03.140Z,4.00
2022-11-12T10:07:46.284Z,4.10
2022-11-12T10:10:22.953Z,4.60
2022-11-12T10:13:12.486Z,5.50
2022-11-12T10:16:00.848Z,5.07
2022-11-12T10:18:30.305Z,4.07
2022-11-12T10:21:40.233Z,5.43
2022-11-12T10:24:10.855Z,5.60
2022-11-12T10:26:39.373Z,4.37
2022-11-12T10:29:12.849Z,4.43
2022-11-12T10:31:39.414Z,6.00
2022-11-12T10:34:26.208Z,4.67
2022-11-12T10:37:06.352Z,4.13
2022-11-12T10:39:41.693Z,4.13
2022-11-12T10:42:10.067Z,4.87
2022-11-12T10:44:38.628Z,8.37
2022-11-12T10:47:27.931Z,5.47
2022-11-12T10:50:03.429Z,4.70
2022-11-12T10:52:32.462Z,4.77
2022-11-12T10:55:17.842Z,5.73
2022-11-12T10:57:44.361Z,5.43
2022-11-12T11:00:13.704Z,6.40
2022-11-12T11:03:07.599Z,4.27
2022-11-12T11:05:36.246Z,5.77
2022-11-12T11:08:04.112Z,4.80
2022-11-12T11:10:35.815Z,6.53
2022-11-12T11:13:22.522Z,7.57
2022-11-12T11:16:04.808Z,5.03
2022-11-12T11:18:35.221Z,5.90
2022-11-12T11:21:18.356Z,5.60
2022-11-12T11:24:21.986Z,5.53
2022-11-12T11:27:03.554Z,4.30
2022-11-12T11:29:59.294Z,5.27
2022-11-12T11:35:55.245Z,5.20
2022-11-12T11:38:56.236Z,4.30
2022-11-12T11:41:34.913Z,5.03
2022-11-12T11:44:15.045Z,4.40
2022-11-12T11:46:45.110Z,5.97
2022-11-12T11:49:36.623Z,5.67
2022-11-12T11:52:18.789Z,5.23
2022-11-12T11:54:59.061Z,4.10
2022-11-12T11:57:33.904Z,5.37
2022-11-12T12:00:19.243Z,4.13
2022-11-12T12:03:06.097Z,3.53
2022-11-12T12:05:38.229Z,3.80
2022-11-12T12:08:32.117Z,3.63
2022-11-12T12:11:20.908Z,5.03
2022-11-12T12:14:15.639Z,5.43
2022-11-12T12:16:48.001Z,3.90
2022-11-12T12:19:40.204Z,6.30
2022-11-12T12:22:12.089Z,6.53
2022-11-12T12:24:50.434Z,4.10
2022-11-12T12:27:26.096Z,3.60
2022-11-12T12:29:56.972Z,3.83
2022-11-12T12:32:30.814Z,3.53
2022-11-12T15:07:58.208Z,1.90
2022-11-12T15:10:38.205Z,2.07
2022-11-12T15:13:37.657Z,2.03
2022-11-12T15:16:09.581Z,6.33
2022-11-12T15:18:37.992Z,6.83
2022-11-12T15:21:12.483Z,3.27
2022-11-12T15:23:49.398Z,2.30
2022-11-12T15:26:36.194Z,2.20
2022-11-12T15:29:15.250Z,2.27
2022-11-12T15:31:52.000Z,2.90
2022-11-12T15:34:41.535Z,2.00
2022-11-12T15:37:20.076Z,2.10
2022-11-12T15:39:50.061Z,2.00
2022-11-12T15:42:30.782Z,1.93
2022-11-12T15:45:00.800Z,2.10
2022-11-12T15:47:27.790Z,2.10
2022-11-12T15:49:56.133Z,2.13
2022-11-12T15:52:23.090Z,2.10
2022-11-12T15:54:49.469Z,2.27
2022-11-12T15:57:20.088Z,1.97
2022-11-12T15:59:57.214Z,2.03
2022-11-12T16:02:24.722Z,2.30
2022-11-12T16:04:51.067Z,3.07
2022-11-12T16:07:17.663Z,2.87
2022-11-12T16:09:44.253Z,2.20
2022-11-12T16:12:12.540Z,2.10
2022-11-12T16:14:39.956Z,2.20
2022-11-12T16:17:13.175Z,3.27
2022-11-12T16:19:39.658Z,2.17
2022-11-12T16:22:12.306Z,3.90
2022-11-12T16:24:42.458Z,2.20
2022-11-12T16:27:14.036Z,2.67
2022-11-12T16:29:40.986Z,2.93
2022-11-12T16:32:12.309Z,2.40
2022-11-12T16:34:38.609Z,2.60
2022-11-12T16:37:04.950Z,2.43
2022-11-12T16:39:31.653Z,2.40
2022-11-12T16:41:58.003Z,3.50
2022-11-12T16:44:24.325Z,3.43
2022-11-12T16:46:50.687Z,3.67
2022-11-12T16:49:17.629Z,3.20
2022-11-12T16:51:44.069Z,3.27
2022-11-12T16:54:10.569Z,4.73
2022-11-12T16:56:37.462Z,3.27
2022-11-12T16:59:04.578Z,3.23
2022-11-12T17:01:32.930Z,3.87
2022-11-12T17:03:59.553Z,4.67
2022-11-12T17:06:37.954Z,5.27
2022-11-12T17:09:10.143Z,5.87
2022-11-12T17:11:36.873Z,5.40
2022-11-12T17:14:05.541Z,8.33
2022-11-12T17:16:32.082Z,9.20
2022-11-12T17:19:01.269Z,6.17
2022-11-12T17:21:28.451Z,4.97
2022-11-12T17:23:56.171Z,6.57
2022-11-12T17:26:22.858Z,5.10
2022-11-12T17:28:53.893Z,4.70
2022-11-12T17:31:24.445Z,7.67
2022-11-12T17:33:52.814Z,5.47
2022-11-12T17:36:24.558Z,4.23
2022-11-12T17:38:55.203Z,3.57
2022-11-12T17:41:21.572Z,3.20
2022-11-12T17:43:48.156Z,3.80
2022-11-12T17:46:14.854Z,3.67
2022-11-12T17:48:41.443Z,4.67
2022-11-12T17:51:16.452Z,4.07
2022-11-12T17:53:43.297Z,4.50
2022-11-12T17:56:11.534Z,4.37
2022-11-12T17:58:38.487Z,5.17
2022-11-12T18:01:08.375Z,4.50
2022-11-12T18:03:40.935Z,4.57
2022-11-12T18:06:12.497Z,6.33
2022-11-12T18:08:40.237Z,5.03
2022-11-12T18:11:08.010Z,9.53
2022-11-12T18:13:34.587Z,7.83
2022-11-12T18:18:37.759Z,9.40
2022-11-12T18:21:04.735Z,11.07
2022-11-12T18:23:31.070Z,16.80
2022-11-12T18:25:57.475Z,12.33
2022-11-12T18:28:23.784Z,12.47
2022-11-12T18:30:50.136Z,8.73
2022-11-12T18:33:16.450Z,6.67
2022-11-12T18:35:42.915Z,6.10
2022-11-12T18:38:09.230Z,5.30
2022-11-12T18:40:35.623Z,5.60
2022-11-12T18:43:02.041Z,5.13
2022-11-12T18:45:28.393Z,7.03
2022-11-12T18:47:54.780Z,5.13
2022-11-12T18:50:21.246Z,5.27
2022-11-12T18:52:47.713Z,5.50
2022-11-12T18:55:14.152Z,6.90
2022-11-12T18:57:40.633Z,7.37
2022-11-12T19:00:07.504Z,6.27
2022-11-12T19:02:33.865Z,5.37
2022-11-12T19:05:00.312Z,6.00
2022-11-12T19:07:26.650Z,10.03
2022-11-12T19:09:53.097Z,8.30
2022-11-12T19:12:19.399Z,11.20
2022-11-12T19:14:45.813Z,6.47
2022-11-12T19:17:12.398Z,8.10
2022-11-12T19:19:38.753Z,5.70
2022-11-12T19:22:05.288Z,6.10
2022-11-12T19:24:31.575Z,6.13
2022-11-12T19:26:57.891Z,5.03
2022-11-12T19:29:24.211Z,8.07
2022-11-12T19:31:50.644Z,7.67
2022-11-12T19:34:16.940Z,7.80
2022-11-12T19:36:43.233Z,8.23
2022-11-12T19:39:09.564Z,7.40
2022-11-12T19:41:35.874Z,11.37
2022-11-12T19:44:02.370Z,8.90
2022-11-12T19:46:28.816Z,8.83
2022-11-12T19:48:55.199Z,11.23
2022-11-12T19:51:21.542Z,11.40
2022-11-12T19:53:47.912Z,10.87
2022-11-12T19:56:17.029Z,11.80
2022-11-12T19:58:48.165Z,14.63
2022-11-12T20:01:17.560Z,14.37
2022-11-12T20:03:44.335Z,13.13
2022-11-12T20:06:13.576Z,13.13
2022-11-12T20:08:40.394Z,12.27
2022-11-12T20:11:06.747Z,10.27
2022-11-12T20:13:33.237Z,8.63
2022-11-12T20:15:59.614Z,11.43
2022-11-12T20:18:26.713Z,9.47
2022-11-12T20:20:55.978Z,8.93
2022-11-12T20:23:23.845Z,8.47
2022-11-12T20:25:51.753Z,8.67
2022-11-12T20:28:18.383Z,8.33
2022-11-12T20:30:45.184Z,8.90
2022-11-12T20:33:13.318Z,9.80
2022-11-12T20:35:39.627Z,8.70
2022-11-12T20:38:06.040Z,8.83
2022-11-12T20:40:32.441Z,9.00
2022-11-12T20:42:58.763Z,9.93
2022-11-12T20:45:25.522Z,9.60
2022-11-12T20:47:51.845Z,9.77
2022-11-12T20:50:18.312Z,12.63
2022-11-12T20:52:44.791Z,10.53
2022-11-12T20:55:11.163Z,10.87
2022-11-12T20:57:37.649Z,12.53
2022-11-12T21:00:04.898Z,14.97
2022-11-12T21:02:31.339Z,13.80
2022-11-12T21:04:57.800Z,16.73
2022-11-12T21:07:24.192Z,13.33
2022-11-12T21:09:50.605Z,13.33
2022-11-12T21:12:17.053Z,13.80
2022-11-12T21:14:49.076Z,15.53
2022-11-12T21:17:16.841Z,17.40
2022-11-12T21:19:43.160Z,13.50
2022-11-12T21:22:09.562Z,12.67
2022-11-12T21:24:35.919Z,14.97
2022-11-12T21:27:02.380Z,14.10
2022-11-12T21:29:28.722Z,11.53
2022-11-12T21:31:55.111Z,11.77
2022-11-12T21:34:21.432Z,13.23
2022-11-12T21:36:47.762Z,11.27
2022-11-12T21:39:14.164Z,12.03
2022-11-12T21:41:40.553Z,9.67
2022-11-12T21:44:06.897Z,14.40
2022-11-12T21:46:35.779Z,11.70
2022-11-12T21:49:02.162Z,11.77
2022-11-12T21:51:30.829Z,13.37
2022-11-12T21:54:03.079Z,17.87
2022-11-12T21:56:31.001Z,12.43
2022-11-12T21:59:00.163Z,15.17
2022-11-12T22:01:30.046Z,13.87
2022-11-12T22:03:57.908Z,15.93
2022-11-12T22:06:27.425Z,15.20
2022-11-12T22:08:55.785Z,16.17
2022-11-12T22:11:22.593Z,14.57
2022-11-12T22:13:49.548Z,15.70
2022-11-12T22:16:17.482Z,11.63
2022-11-12T22:18:46.637Z,14.60
2022-11-12T22:21:16.476Z,13.37
2022-11-12T22:23:43.056Z,16.57
2022-11-12T22:26:15.321Z,13.93
2022-11-12T22:28:41.946Z,12.97
2022-11-12T22:31:11.508Z,14.23
2022-11-12T22:33:38.288Z,16.43
2022-11-12T22:36:07.709Z,13.07
2022-11-12T22:38:40.314Z,13.70
2022-11-12T22:41:09.512Z,13.87
2022-11-12T22:43:39.369Z,15.50
2022-11-12T22:46:13.944Z,12.30
2022-11-12T22:48:40.269Z,11.53
2022-11-12T22:51:09.986Z,11.77
2022-11-12T22:53:36.522Z,12.63
2022-11-12T22:56:12.006Z,10.40
2022-11-12T22:58:40.192Z,12.77
2022-11-12T23:01:08.314Z,12.73
2022-11-12T23:03:35.675Z,12.67
2022-11-12T23:06:04.468Z,11.60
2022-11-12T23:08:31.767Z,10.40
2022-11-12T23:11:09.307Z,10.77
2022-11-12T23:13:36.146Z,10.53
2022-11-12T23:16:06.908Z,8.97
2022-11-12T23:18:33.292Z,9.13
2022-11-12T23:21:08.793Z,9.83
2022-11-12T23:23:36.158Z,11.63
2022-11-12T23:26:12.421Z,8.80
2022-11-12T23:28:38.891Z,10.77
2022-11-12T23:31:10.305Z,9.60
2022-11-12T23:33:36.840Z,10.13
2022-11-12T23:36:08.393Z,11.43
2022-11-12T23:38:34.931Z,11.83
2022-11-12T23:41:02.833Z,8.70
2022-11-12T23:43:29.971Z,8.87
2022-11-12T23:45:56.618Z,8.63
2022-11-12T23:48:23.225Z,8.93
2022-11-12T23:50:51.002Z,8.73
2022-11-12T23:53:18.074Z,8.60
2022-11-12T23:55:44.949Z,11.73
2022-11-12T23:58:11.402Z,8.30
